South Prairie, North Dakota
Current Conditions -  °F | °C
As of 9:54 AM on Friday 31 Oct 2014 (Local Time) from KMOT Reporting Station
Clear Clear  
Wind Chill: 11°   Ceiling: Unl
Heat Index: 24°   Visibility: 10mi
Dew Point: 18°   Wind: 15mph
Humidity: 77%   Direction: 130°SE
Pressure: 30.42"   Gusts: 23mph
Location:  48.1414°N, 101.387°W
Report Text: KMOT 311454Z 13013G20KT 10SM CLR M04/M08 A3042 RMK AO2 SLP332 T10441078 56020
Loading
Personal Weather Stations






























Interactive Weather Map
Tropical Storm Tracking
New forecast layout! Learn more

10-Day Weather Forecast

Advertisements
Track Severe Weather on mobile